Time;durP1;ratioP1;P1;durP2;ratioP2;P2;SDS_P1;SDS_P2;PMS_P1;PMS_P2;Temp;Humidity;BMP_temperature;BMP_pressure;BME280_temperature;BME280_humidity;BME280_pressure;Samples;Min_cycle;Max_cycle;Signal;HPM_P1;HPM_P2
2023/07/25 06:19:09;;;;;;;;;6.00;6.00;;;;;22.91;55.13;100327.03;5113080;27;45412;-82
2023/07/25 06:21:34;;;;;;;;;4.33;4.33;;;;;23.07;54.72;100325.28;5101559;27;45871;-82
2023/07/25 06:24:00;;;;;;;;;4.00;4.00;;;;;23.24;54.69;100328.75;5105191;27;45689;-82
2023/07/25 06:26:25;;;;;;;;;6.33;4.00;;;;;23.42;54.37;100342.09;5116156;27;46895;-83
2023/07/25 06:28:52;;;;;;;;;5.00;4.00;;;;;23.60;54.23;100336.38;5102786;27;54355;-82
2023/07/25 06:31:17;;;;;;;;;4.00;4.00;;;;;23.76;53.45;100338.16;5107090;27;45483;-81
2023/07/25 06:33:43;;;;;;;;;2.00;2.00;;;;;23.91;53.68;100338.19;5102485;27;45777;-84
2023/07/25 06:36:08;;;;;;;;;5.33;3.67;;;;;24.04;53.35;100332.16;5094771;27;45827;-83
2023/07/25 06:38:33;;;;;;;;;4.67;4.33;;;;;24.17;52.88;100331.59;5101663;27;54257;-82
2023/07/25 06:40:59;;;;;;;;;2.33;2.33;;;;;24.31;52.70;100334.50;5102670;27;45373;-85
2023/07/25 06:43:24;;;;;;;;;4.67;4.67;;;;;24.41;52.09;100339.69;5103668;27;45678;-84
2023/07/25 06:45:50;;;;;;;;;3.33;3.33;;;;;24.48;52.13;100330.63;5094291;27;45534;-80
2023/07/25 06:48:16;;;;;;;;;3.00;3.00;;;;;24.58;52.15;100338.50;5099395;27;46424;-78
2023/07/25 06:50:42;;;;;;;;;2.33;2.33;;;;;24.66;51.76;100350.28;5098708;27;55629;-82
2023/07/25 06:53:07;;;;;;;;;3.33;3.33;;;;;24.74;51.82;100345.59;5104270;27;45529;-83
2023/07/25 06:55:32;;;;;;;;;3.33;2.00;;;;;24.82;51.45;100349.25;5092222;27;45481;-83
2023/07/25 06:57:57;;;;;;;;;5.00;3.00;;;;;24.88;51.21;100345.81;5100717;27;46457;-84
2023/07/25 07:00:23;;;;;;;;;3.33;3.00;;;;;24.93;51.03;100345.28;5108007;27;47790;-85
2023/07/25 07:02:48;;;;;;;;;3.00;3.00;;;;;24.95;51.07;100346.78;5105736;27;45567;-84
2023/07/25 07:05:13;;;;;;;;;3.00;3.00;;;;;25.02;50.40;100355.00;5104269;27;47631;-83
2023/07/25 07:07:40;;;;;;;;;3.00;3.00;;;;;25.06;50.75;100353.56;5103183;27;46523;-83
2023/07/25 07:10:06;;;;;;;;;4.00;2.33;;;;;25.09;50.39;100357.81;5099358;27;45528;-82
2023/07/25 07:12:31;;;;;;;;;3.00;3.00;;;;;25.13;50.23;100359.97;5104313;27;45505;-83
2023/07/25 07:14:56;;;;;;;;;3.00;3.00;;;;;25.16;50.14;100358.72;5106138;27;45597;-82
2023/07/25 07:17:22;;;;;;;;;4.00;4.00;;;;;25.20;50.55;100359.19;5107668;27;47021;-84
2023/07/25 07:19:47;;;;;;;;;3.00;3.00;;;;;25.24;49.97;100357.78;5103019;27;45461;-84
2023/07/25 07:22:13;;;;;;;;;2.33;2.33;;;;;25.26;49.85;100355.75;5108275;27;45378;-84
2023/07/25 07:24:39;;;;;;;;;4.33;4.33;;;;;25.29;50.11;100368.91;5103536;27;45438;-84
2023/07/25 07:27:05;;;;;;;;;4.00;4.00;;;;;25.30;49.70;100362.44;5101490;27;45553;-86
2023/07/25 07:29:30;;;;;;;;;3.33;3.33;;;;;25.33;49.90;100367.50;5089709;27;45419;-87
2023/07/25 07:31:55;;;;;;;;;6.00;4.33;;;;;25.34;49.17;100373.81;5085918;27;53633;-87
2023/07/25 07:34:21;;;;;;;;;3.67;3.67;;;;;25.34;49.26;100387.38;5088809;27;46129;-85
2023/07/25 07:36:46;;;;;;;;;6.00;5.33;;;;;25.34;49.01;100393.63;5094120;27;64447;-84
2023/07/25 07:39:11;;;;;;;;;4.00;4.00;;;;;25.37;49.05;100401.41;5088310;27;61026;-82
2023/07/25 07:41:37;;;;;;;;;6.00;6.00;;;;;25.37;48.49;100404.13;5085463;27;45780;-78
2023/07/25 07:44:02;;;;;;;;;7.00;5.00;;;;;25.36;48.71;100407.88;5086274;27;46914;-79
2023/07/25 07:46:32;;;;;;;;;7.33;5.67;;;;;25.36;48.63;100404.31;5086930;27;46286;-77
2023/07/25 07:48:58;;;;;;;;;8.00;8.00;;;;;25.34;48.72;100420.81;5083615;27;45470;-78
2023/07/25 07:51:24;;;;;;;;;2.33;2.33;;;;;25.32;49.89;100413.88;5074256;27;47227;-75
2023/07/25 07:53:50;;;;;;;;;7.33;7.33;;;;;25.31;48.86;100421.19;5093774;27;45513;-76
2023/07/25 07:56:15;;;;;;;;;5.33;5.33;;;;;25.31;48.23;100429.34;5091954;27;46445;-76
2023/07/25 07:58:40;;;;;;;;;5.67;5.67;;;;;25.29;48.92;100434.09;5091872;27;49612;-78
2023/07/25 08:01:19;;;;;;;;;10.00;8.33;;;;;25.30;48.91;100437.69;5092011;27;48350;-81
2023/07/25 08:03:45;;;;;;;;;7.00;7.00;;;;;25.30;48.88;100443.09;5094597;27;45683;-80
2023/07/25 08:06:11;;;;;;;;;7.00;7.00;;;;;25.30;48.84;100448.53;5094286;27;46223;-82
2023/07/25 08:08:36;;;;;;;;;9.67;6.67;;;;;25.30;48.56;100456.69;5087182;27;45581;-83
2023/07/25 08:11:02;;;;;;;;;7.00;7.00;;;;;25.30;48.30;100467.56;5085759;27;45754;-81
2023/07/25 08:13:27;;;;;;;;;6.00;6.00;;;;;25.30;48.13;100475.72;5086629;27;45413;-82
2023/07/25 08:15:52;;;;;;;;;5.00;5.00;;;;;25.30;48.37;100475.72;5095428;27;46077;-82
2023/07/25 08:18:18;;;;;;;;;5.00;5.00;;;;;25.30;48.26;100481.13;5093269;27;55606;-82
2023/07/25 08:20:45;;;;;;;;;6.33;6.33;;;;;25.26;48.03;100480.69;5081480;27;45545;-81
2023/07/25 08:23:10;;;;;;;;;6.67;5.67;;;;;25.28;48.11;100489.47;5079362;27;45701;-82
2023/07/25 08:25:39;;;;;;;;;5.33;4.00;;;;;25.28;47.89;100494.91;5092413;27;45895;-84
2023/07/25 08:28:05;;;;;;;;;2.00;2.00;;;;;25.30;48.06;100505.59;5086961;27;45888;-83
2023/07/25 08:30:30;;;;;;;;;4.00;4.00;;;;;25.30;47.96;100508.31;5082699;27;45512;-82
2023/07/25 08:32:56;;;;;;;;;4.00;4.00;;;;;25.31;47.51;100516.28;5080383;27;45591;-80
2023/07/25 08:35:21;;;;;;;;;6.33;6.33;;;;;25.29;47.70;100520.19;5078656;27;47898;-81
2023/07/25 08:37:46;;;;;;;;;4.67;4.67;;;;;25.30;47.00;100516.44;5090029;27;45555;-82
2023/07/25 08:40:12;;;;;;;;;4.00;4.00;;;;;25.30;47.18;100514.56;5091257;27;45670;-87
2023/07/25 08:42:41;;;;;;;;;4.00;4.00;;;;;25.30;47.38;100511.84;5091592;27;45374;-85
2023/07/25 08:45:08;;;;;;;;;4.00;4.00;;;;;25.30;47.29;100511.84;5086835;27;45740;-83
2023/07/25 08:47:40;;;;;;;;;5.33;4.00;;;;;25.30;47.21;100520.00;5074453;27;45451;-85
2023/07/25 08:50:14;;;;;;;;;2.67;2.67;;;;;25.31;46.96;100520.84;5085816;27;45595;-86
2023/07/25 08:52:42;;;;;;;;;2.00;2.00;;;;;25.31;46.66;100523.56;5091645;27;45716;-87
2023/07/25 08:55:08;;;;;;;;;3.00;3.00;;;;;25.31;47.04;100537.13;5079443;27;46837;-86
2023/07/25 08:57:34;;;;;;;;;2.00;2.00;;;;;25.30;46.33;100551.75;5080095;27;45478;-82
2023/07/25 09:00:00;;;;;;;;;2.00;2.00;;;;;25.30;46.65;100549.03;5078888;27;45436;-80
2023/07/25 09:02:25;;;;;;;;;3.00;3.00;;;;;25.32;46.59;100564.13;5077780;27;45398;-79
2023/07/25 09:04:52;;;;;;;;;6.00;4.33;;;;;25.36;46.42;100572.75;5087650;27;45440;-81
2023/07/25 09:07:17;;;;;;;;;3.00;3.00;;;;;25.37;46.62;100578.00;5085803;27;45502;-83
2023/07/25 09:09:43;;;;;;;;;6.00;4.00;;;;;25.40;47.02;100584.94;5078297;27;45473;-83
2023/07/25 09:12:09;;;;;;;;;3.00;3.00;;;;;25.43;46.35;100592.72;5079880;27;45575;-83
2023/07/25 09:14:36;;;;;;;;;3.00;3.00;;;;;25.45;46.76;100600.66;5079834;27;46061;-83
2023/07/25 09:17:04;;;;;;;;;3.00;3.00;;;;;25.46;46.12;100616.78;5078805;27;45631;-83
2023/07/25 09:19:30;;;;;;;;;3.33;2.67;;;;;25.49;46.23;100618.28;5075406;27;45549;-83
2023/07/25 09:21:58;;;;;;;;;2.00;2.00;;;;;25.51;46.21;100614.34;5080003;27;45465;-82
2023/07/25 09:24:36;;;;;;;;;3.33;3.33;;;;;25.53;46.49;100625.03;5074362;27;47043;-83
2023/07/25 09:27:02;;;;;;;;;2.33;2.33;;;;;25.54;45.85;100624.00;5078892;27;45739;-83
2023/07/25 09:29:28;;;;;;;;;3.33;3.00;;;;;25.58;45.84;100629.97;5079396;27;45784;-82
2023/07/25 09:31:53;;;;;;;;;2.33;2.33;;;;;25.58;45.95;100633.50;5076176;27;45798;-83
2023/07/25 09:34:23;;;;;;;;;2.67;2.67;;;;;25.61;45.78;100643.16;5104241;27;47251;-77
2023/07/25 09:36:48;;;;;;;;;2.67;2.67;;;;;25.61;45.31;100652.19;5082074;27;45524;-78
2023/07/25 09:39:15;;;;;;;;;2.00;2.00;;;;;25.59;44.70;100653.41;5082099;27;45493;-78
2023/07/25 09:41:41;;;;;;;;;3.00;1.00;;;;;25.58;44.39;100660.69;5082082;27;46840;-78
2023/07/25 09:44:06;;;;;;;;;5.67;2.33;;;;;25.57;45.02;100663.59;5085733;27;45437;-82
2023/07/25 09:46:32;;;;;;;;;2.00;2.00;;;;;25.59;44.82;100666.97;5088126;27;45469;-82
2023/07/25 09:48:57;;;;;;;;;2.00;2.00;;;;;25.59;44.77;100673.25;5086863;27;45442;-81
2023/07/25 09:51:22;;;;;;;;;4.33;3.00;;;;;25.60;45.56;100680.38;5079078;27;45622;-81
2023/07/25 09:53:53;;;;;;;;;3.00;3.00;;;;;25.63;45.32;100680.00;5083287;27;46249;-80
2023/07/25 09:56:23;;;;;;;;;2.00;2.00;;;;;25.65;45.06;100688.84;5084657;27;45529;-80
2023/07/25 09:58:49;;;;;;;;;3.00;3.00;;;;;25.69;45.56;100689.31;5075283;27;45525;-80
2023/07/25 10:01:15;;;;;;;;;3.00;3.00;;;;;25.72;45.17;100691.66;5076248;27;45502;-78
2023/07/25 10:03:43;;;;;;;;;2.00;2.00;;;;;25.74;45.70;100683.28;5085348;27;46247;-80
2023/07/25 10:06:10;;;;;;;;;1.00;1.00;;;;;25.76;45.68;100692.13;5082332;27;45453;-81
2023/07/25 10:08:38;;;;;;;;;2.33;2.33;;;;;25.77;44.70;100691.09;5086224;27;45634;-87
2023/07/25 10:11:04;;;;;;;;;2.00;2.00;;;;;25.78;44.96;100695.50;5086021;27;45518;-86
2023/07/25 10:13:32;;;;;;;;;2.00;2.00;;;;;25.78;44.63;100692.78;5083815;27;45501;-89
2023/07/25 10:16:00;;;;;;;;;1.00;1.00;;;;;25.78;44.09;100692.78;5080323;27;45794;-83
2023/07/25 10:18:27;;;;;;;;;2.67;2.00;;;;;25.79;44.63;100697.22;5082218;27;45583;-84
2023/07/25 10:20:54;;;;;;;;;3.00;1.00;;;;;25.78;43.96;100690.06;5090187;27;45551;-85
2023/07/25 10:23:32;;;;;;;;;2.00;2.00;;;;;25.78;43.99;100701.78;5090306;27;46238;-86
2023/07/25 10:26:09;;;;;;;;;3.00;2.00;;;;;25.75;43.82;100699.44;5092467;27;45428;-86
2023/07/25 10:28:35;;;;;;;;;2.00;2.00;;;;;25.77;44.02;100702.81;5087995;27;47483;-81
2023/07/25 10:31:00;;;;;;;;;3.00;3.00;;;;;25.81;44.07;100707.88;5082533;27;45648;-81
2023/07/25 10:33:25;;;;;;;;;3.00;2.67;;;;;25.81;44.30;100706.00;5086132;27;46145;-82
2023/07/25 10:35:53;;;;;;;;;2.00;2.00;;;;;25.78;44.33;100704.50;5090924;27;45458;-79
2023/07/25 10:38:21;;;;;;;;;3.00;3.00;;;;;25.82;43.66;100709.59;5090831;27;45835;-80
2023/07/25 10:40:50;;;;;;;;;2.67;2.67;;;;;25.83;43.65;100709.38;5092835;27;45643;-83
2023/07/25 10:43:15;;;;;;;;;3.00;3.00;;;;;25.83;44.13;100713.97;5086823;27;46451;-80
2023/07/25 10:45:50;;;;;;;;;2.00;2.00;;;;;25.84;44.04;100721.09;5080547;27;51321;-80
2023/07/25 10:48:27;;;;;;;;;3.00;3.00;;;;;25.84;44.11;100726.53;5089177;27;45457;-80
2023/07/25 10:50:54;;;;;;;;;3.00;3.00;;;;;25.84;43.45;100729.25;5091120;27;45420;-79
2023/07/25 10:53:20;;;;;;;;;2.00;2.00;;;;;25.83;43.98;100733.84;5090546;27;47521;-79
2023/07/25 10:56:04;;;;;;;;;3.00;3.00;;;;;25.85;43.41;100729.06;5084218;27;45441;-79
2023/07/25 10:58:33;;;;;;;;;4.00;4.00;;;;;25.85;43.99;100728.22;5091713;27;45507;-80
2023/07/25 11:01:00;;;;;;;;;4.00;4.00;;;;;25.84;43.60;100732.84;5083886;27;45538;-82
2023/07/25 11:03:32;;;;;;;;;4.00;4.00;;;;;25.86;43.49;100735.34;5089143;27;45477;-80
2023/07/25 11:06:07;;;;;;;;;3.00;3.00;;;;;25.85;43.97;100729.06;5091073;27;45582;-83
2023/07/25 11:08:33;;;;;;;;;3.00;3.00;;;;;25.85;43.24;100728.22;5094039;27;45437;-80
2023/07/25 11:11:07;;;;;;;;;3.00;3.00;;;;;25.85;43.55;100731.81;5093181;27;45379;-83
2023/07/25 11:13:33;;;;;;;;;4.00;4.00;;;;;25.86;43.54;100729.91;5085129;27;46146;-83
2023/07/25 11:16:01;;;;;;;;;3.33;3.33;;;;;25.86;43.92;100730.75;5093798;27;45558;-83
2023/07/25 11:18:27;;;;;;;;;4.00;4.00;;;;;25.87;43.51;100732.44;5079960;27;45639;-83
2023/07/25 11:21:00;;;;;;;;;4.33;4.00;;;;;25.86;43.20;100728.03;5090536;27;45427;-80
2023/07/25 11:23:25;;;;;;;;;5.00;3.33;;;;;25.87;43.55;100731.63;5091256;27;46093;-79
2023/07/25 11:25:55;;;;;;;;;6.33;3.33;;;;;25.87;44.05;100726.19;5086800;27;45550;-81
2023/07/25 11:28:21;;;;;;;;;5.33;5.33;;;;;25.86;43.60;100728.03;5089246;27;45800;-77
2023/07/25 11:30:47;;;;;;;;;3.00;3.00;;;;;25.88;43.51;100736.84;5082522;27;45600;-77
2023/07/25 11:33:12;;;;;;;;;6.00;5.00;;;;;25.88;43.83;100728.69;5083866;27;45535;-78
2023/07/25 11:35:38;;;;;;;;;6.33;3.00;;;;;25.86;43.47;100728.03;5081924;27;45579;-79
2023/07/25 11:38:03;;;;;;;;;5.33;5.00;;;;;25.86;43.30;100728.03;5084331;27;45622;-79
2023/07/25 11:40:29;;;;;;;;;5.00;5.00;;;;;25.85;43.61;100737.25;5083225;27;45644;-79
2023/07/25 11:42:56;;;;;;;;;5.00;4.00;;;;;25.84;43.10;100738.28;5081421;27;45458;-80
2023/07/25 11:45:22;;;;;;;;;4.00;4.00;;;;;25.85;42.71;100736.38;5077718;27;45457;-79
2023/07/25 11:47:50;;;;;;;;;7.00;5.33;;;;;25.83;43.50;100741.16;5080800;27;45772;-80
2023/07/25 11:50:16;;;;;;;;;5.33;5.33;;;;;25.83;42.78;100742.00;5091236;27;45634;-80
2023/07/25 11:52:44;;;;;;;;;4.33;4.00;;;;;25.83;42.83;100742.00;5083881;27;45471;-80
2023/07/25 11:55:11;;;;;;;;;3.67;3.67;;;;;25.85;42.85;100748.13;5093667;27;45363;-80
2023/07/25 11:57:40;;;;;;;;;5.33;5.33;;;;;25.86;43.45;100746.22;5092601;27;45563;-80
2023/07/25 12:00:06;;;;;;;;;6.00;6.00;;;;;25.85;43.38;100742.69;5088292;27;45976;-80
2023/07/25 12:02:39;;;;;;;;;6.67;5.33;;;;;25.85;43.14;100744.53;5088250;27;45653;-80
2023/07/25 12:05:05;;;;;;;;;5.67;5.67;;;;;25.85;42.82;100745.41;5079670;27;45536;-80
2023/07/25 12:07:50;;;;;;;;;5.33;4.33;;;;;25.84;42.84;100742.84;5077704;27;45428;-81
2023/07/25 12:10:29;;;;;;;;;5.00;5.00;;;;;25.85;42.97;100748.13;5074344;27;45471;-80
2023/07/25 12:12:55;;;;;;;;;5.00;5.00;;;;;25.84;42.69;100748.28;5081645;27;45537;-81
2023/07/25 12:15:23;;;;;;;;;7.00;6.00;;;;;25.83;42.42;100757.47;5085139;27;45623;-80
2023/07/25 12:17:48;;;;;;;;;4.00;4.00;;;;;25.81;42.50;100760.38;5087028;27;45481;-80
2023/07/25 12:20:18;;;;;;;;;5.33;5.33;;;;;25.80;42.49;100755.97;5086305;27;45607;-78
2023/07/25 12:22:44;;;;;;;;;6.33;6.33;;;;;25.77;43.36;100759.06;5089110;27;46034;-78
2023/07/25 12:25:10;;;;;;;;;7.00;5.33;;;;;25.77;42.89;100765.34;5094397;27;45708;-79
2023/07/25 12:27:44;;;;;;;;;6.00;6.00;;;;;25.79;42.99;100765.16;5085497;27;45679;-79
2023/07/25 12:30:10;;;;;;;;;4.33;4.33;;;;;25.81;43.19;100767.69;5093791;27;45393;-79
2023/07/25 12:32:35;;;;;;;;;4.67;4.67;;;;;25.83;43.30;100766.47;5085200;27;45613;-78
2023/07/25 12:35:01;;;;;;;;;5.67;4.67;;;;;25.86;43.54;100773.41;5086483;27;45613;-79
2023/07/25 12:37:26;;;;;;;;;5.33;5.00;;;;;25.87;43.60;100772.41;5081342;27;45441;-78
2023/07/25 12:39:51;;;;;;;;;6.67;6.33;;;;;25.88;44.08;100771.38;5080134;27;45579;-79
2023/07/25 12:42:17;;;;;;;;;4.33;3.33;;;;;25.88;44.01;100772.19;5077355;27;45963;-80
2023/07/25 12:44:42;;;;;;;;;5.67;5.67;;;;;25.93;44.29;100777.09;5085403;27;45556;-81
2023/07/25 12:47:08;;;;;;;;;8.00;6.00;;;;;25.95;44.24;100766.03;5083130;27;45509;-82
2023/07/25 12:49:33;;;;;;;;;5.67;5.67;;;;;25.94;43.73;100767.91;5088301;27;45828;-81
2023/07/25 12:52:00;;;;;;;;;7.00;4.33;;;;;25.99;44.04;100780.97;5088551;27;45952;-79
2023/07/25 12:54:26;;;;;;;;;2.00;2.00;;;;;26.01;44.49;100782.47;5083593;27;45419;-78
2023/07/25 12:56:51;;;;;;;;;6.00;4.00;;;;;26.04;44.73;100786.69;5089104;27;45507;-77
2023/07/25 12:59:16;;;;;;;;;6.00;5.00;;;;;26.06;44.65;100792.78;5087519;27;45299;-79
2023/07/25 13:01:42;;;;;;;;;6.67;6.67;;;;;26.06;44.24;100784.63;5090427;27;46284;-80
2023/07/25 13:04:07;;;;;;;;;5.33;5.00;;;;;26.08;44.62;100790.75;5080703;27;54135;-79
2023/07/25 13:06:34;;;;;;;;;4.00;4.00;;;;;26.11;44.51;100792.25;5077009;27;45458;-79
2023/07/25 13:09:00;;;;;;;;;5.00;5.00;;;;;26.13;44.78;100787.44;5083039;27;45367;-79
2023/07/25 13:11:25;;;;;;;;;6.00;4.67;;;;;26.14;44.76;100798.16;5085195;27;45381;-82
2023/07/25 13:13:50;;;;;;;;;5.67;5.67;;;;;26.16;44.21;100792.53;5090505;27;45410;-81
2023/07/25 13:16:16;;;;;;;;;4.67;3.67;;;;;26.15;44.21;100783.50;5090677;27;45677;-78
2023/07/25 13:18:41;;;;;;;;;6.00;6.00;;;;;26.18;44.28;100790.44;5091271;27;45561;-79
2023/07/25 13:21:07;;;;;;;;;5.67;5.67;;;;;26.18;44.95;100785.88;5076645;27;45574;-79
2023/07/25 13:23:32;;;;;;;;;7.67;5.00;;;;;26.21;44.49;100783.78;5093076;27;45927;-80
2023/07/25 13:25:57;;;;;;;;;7.33;6.00;;;;;26.21;44.66;100786.50;5090503;27;45520;-79
2023/07/25 13:28:23;;;;;;;;;4.33;4.33;;;;;26.21;44.97;100786.50;5084486;27;45624;-76
2023/07/25 13:30:48;;;;;;;;;5.00;4.00;;;;;26.23;45.24;100784.47;5088133;27;46076;-75
2023/07/25 13:33:13;;;;;;;;;4.00;4.00;;;;;26.25;45.01;100780.56;5080778;27;45479;-74
2023/07/25 13:35:39;;;;;;;;;4.67;4.67;;;;;26.27;43.73;100781.22;5087855;27;45489;-74
2023/07/25 13:38:06;;;;;;;;;6.67;6.00;;;;;26.24;42.57;100778.81;5081387;27;45401;-75
2023/07/25 13:40:31;;;;;;;;;8.33;5.33;;;;;26.23;42.70;100784.47;5084129;27;45997;-76
2023/07/25 13:42:57;;;;;;;;;6.00;6.00;;;;;26.20;42.25;100788.41;5091783;27;45463;-76
2023/07/25 13:45:22;;;;;;;;;5.33;5.33;;;;;26.20;42.30;100793.84;5084533;27;45476;-74
2023/07/25 13:47:47;;;;;;;;;4.33;4.33;;;;;26.17;42.39;100797.75;5078300;27;45644;-74
2023/07/25 13:50:13;;;;;;;;;4.67;4.67;;;;;26.15;41.76;100786.22;5088613;27;50993;-77
2023/07/25 13:52:38;;;;;;;;;3.33;3.33;;;;;26.16;42.43;100789.81;5087364;27;45351;-77
2023/07/25 13:55:05;;;;;;;;;4.33;4.33;;;;;26.16;41.74;100787.91;5089812;27;45450;-78
2023/07/25 13:57:30;;;;;;;;;4.00;4.00;;;;;26.15;42.02;100794.38;5081055;27;45798;-78
2023/07/25 13:59:55;;;;;;;;;5.00;4.00;;;;;26.14;41.31;100790.00;5089732;27;45855;-78
2023/07/25 14:02:21;;;;;;;;;3.33;3.33;;;;;26.12;41.92;100789.31;5075213;27;51299;-78
2023/07/25 14:04:46;;;;;;;;;4.00;4.00;;;;;26.12;41.84;100789.31;5087282;27;45610;-79
2023/07/25 14:07:11;;;;;;;;;4.33;4.33;;;;;26.12;41.65;100783.88;5085846;27;45658;-78
2023/07/25 14:09:37;;;;;;;;;5.00;5.00;;;;;26.11;41.86;100789.53;5079039;27;46537;-78
2023/07/25 14:12:02;;;;;;;;;4.33;3.33;;;;;26.11;41.41;100793.06;5072090;27;45697;-78
2023/07/25 14:14:28;;;;;;;;;4.00;4.00;;;;;26.11;41.23;100792.25;5085393;27;45670;-79
2023/07/25 14:16:54;;;;;;;;;3.00;3.00;;;;;26.10;41.66;100798.69;5083815;27;45686;-79
2023/07/25 14:19:19;;;;;;;;;3.33;3.33;;;;;26.09;41.64;100806.00;5083091;27;47863;-79
2023/07/25 14:21:45;;;;;;;;;3.67;3.67;;;;;26.09;41.71;100805.16;5086133;27;45933;-77
2023/07/25 14:24:10;;;;;;;;;5.00;5.00;;;;;26.10;41.22;100799.53;5078276;27;45469;-77
2023/07/25 14:26:36;;;;;;;;;5.33;4.33;;;;;26.11;41.29;100808.56;5085844;27;45634;-78
2023/07/25 14:29:02;;;;;;;;;5.33;4.00;;;;;26.08;40.94;100800.75;5083689;27;48846;-78
2023/07/25 14:31:28;;;;;;;;;4.00;4.00;;;;;26.10;40.92;100804.13;5087915;27;45515;-78
2023/07/25 14:33:53;;;;;;;;;6.33;4.00;;;;;26.09;40.85;100806.00;5074690;27;45390;-78
2023/07/25 14:36:19;;;;;;;;;4.00;3.33;;;;;26.10;40.80;100817.72;5084460;27;45672;-78
2023/07/25 14:38:44;;;;;;;;;6.50;5.00;;;;;26.07;40.92;100820.84;5075828;27;45521;-79
2023/07/25 14:41:09;;;;;;;;;4.67;4.67;;;;;26.09;40.75;100816.91;5089298;27;45473;-79
2023/07/25 14:43:35;;;;;;;;;3.67;3.67;;;;;26.09;40.68;100818.75;5085143;27;47521;-79
2023/07/25 14:46:00;;;;;;;;;2.67;2.67;;;;;26.08;41.03;100830.69;5092977;27;45463;-79
2023/07/25 14:48:26;;;;;;;;;3.33;3.00;;;;;26.09;40.63;100835.94;5084213;27;46129;-79
2023/07/25 14:50:51;;;;;;;;;4.33;4.33;;;;;26.07;41.08;100840.69;5089508;27;45489;-78
2023/07/25 14:53:16;;;;;;;;;4.00;4.00;;;;;26.08;40.79;100847.84;5090886;27;45471;-79
2023/07/25 14:55:42;;;;;;;;;4.67;4.67;;;;;26.05;40.68;100849.06;5090331;27;45523;-78
2023/07/25 14:58:07;;;;;;;;;2.67;2.67;;;;;26.05;40.75;100850.94;5085810;27;45438;-78
2023/07/25 15:00:33;;;;;;;;;5.00;3.00;;;;;26.02;40.40;100840.41;5090551;27;45469;-81
2023/07/25 15:02:58;;;;;;;;;3.67;3.00;;;;;26.02;39.91;100852.13;5091941;27;45859;-77
2023/07/25 15:05:24;;;;;;;;;4.00;4.00;;;;;26.05;39.91;100850.94;5084345;27;45673;-77
2023/07/25 15:07:49;;;;;;;;;3.00;3.00;;;;;26.04;39.77;100846.53;5085543;27;45914;-78
2023/07/25 15:10:14;;;;;;;;;4.00;4.00;;;;;26.07;40.16;100851.56;5088789;27;45956;-82
2023/07/25 15:12:40;;;;;;;;;3.00;3.00;;;;;26.07;39.96;100853.47;5088901;27;46079;-78
2023/07/25 15:15:05;;;;;;;;;5.00;5.00;;;;;26.07;39.92;100846.13;5088904;27;45701;-77
2023/07/25 15:17:31;;;;;;;;;5.00;3.00;;;;;26.06;40.30;100852.59;5086581;27;45775;-80
2023/07/25 15:20:04;;;;;;;;;2.67;2.67;;;;;26.08;39.88;100849.72;5094536;27;58553;-80
2023/07/25 15:22:30;;;;;;;;;4.67;3.67;;;;;26.08;40.38;100841.56;5092233;27;45721;-79
2023/07/25 15:24:55;;;;;;;;;3.00;3.00;;;;;26.09;40.79;100845.97;5088604;27;45397;-78
2023/07/25 15:27:21;;;;;;;;;3.00;3.00;;;;;26.08;39.80;100847.00;5085423;27;46330;-79
2023/07/25 15:29:47;;;;;;;;;3.00;3.00;;;;;26.07;40.47;100843.41;5082595;27;45565;-79
2023/07/25 15:32:13;;;;;;;;;2.67;2.67;;;;;26.07;40.40;100837.16;5083891;27;45458;-78
2023/07/25 15:34:38;;;;;;;;;4.33;4.33;;;;;26.06;40.46;100844.44;5092497;27;45587;-75
2023/07/25 15:37:07;;;;;;;;;4.00;3.00;;;;;26.05;40.72;100849.06;5086140;27;45907;-77
2023/07/25 15:39:33;;;;;;;;;4.00;4.00;;;;;26.08;39.71;100849.72;5091592;27;45315;-77
2023/07/25 15:41:58;;;;;;;;;3.33;3.33;;;;;26.06;40.35;100858.03;5095481;27;46599;-76
2023/07/25 15:44:24;;;;;;;;;3.00;3.00;;;;;26.05;40.18;100846.34;5087483;27;48831;-76
2023/07/25 15:46:49;;;;;;;;;5.00;3.67;;;;;26.07;40.40;100858.91;5089614;27;46320;-76
2023/07/25 15:49:15;;;;;;;;;3.00;3.00;;;;;26.07;39.90;100857.00;5091607;27;55636;-77
2023/07/25 15:51:40;;;;;;;;;3.67;2.67;;;;;26.07;39.77;100858.91;5083621;27;45570;-76
2023/07/25 15:54:05;;;;;;;;;3.00;3.00;;;;;26.07;39.77;100858.91;5090123;27;45474;-77
2023/07/25 15:56:31;;;;;;;;;2.00;2.00;;;;;26.09;39.61;100862.28;5087983;27;45664;-77
2023/07/25 15:58:56;;;;;;;;;4.00;4.00;;;;;26.08;40.15;100857.88;5094465;27;52424;-77
2023/07/25 16:01:21;;;;;;;;;3.00;3.00;;;;;26.08;40.38;100866.88;5090934;27;54519;-77
2023/07/25 16:03:47;;;;;;;;;3.33;3.00;;;;;26.09;39.63;100860.41;5090696;27;52538;-77
2023/07/25 16:06:12;;;;;;;;;3.00;3.00;;;;;26.06;39.88;100863.50;5093720;27;45685;-78
2023/07/25 16:08:37;;;;;;;;;2.00;2.00;;;;;26.06;39.77;100866.22;5093642;27;45833;-76
2023/07/25 16:11:03;;;;;;;;;3.00;3.00;;;;;26.06;40.09;100868.94;5093392;27;48868;-76
2023/07/25 16:13:28;;;;;;;;;2.67;2.67;;;;;26.02;39.83;100868.47;5082483;27;45913;-76
2023/07/25 16:15:53;;;;;;;;;6.00;5.33;;;;;26.08;39.61;100882.34;5073297;27;46011;-75
2023/07/25 16:18:19;;;;;;;;;3.33;3.33;;;;;26.05;39.98;100883.56;5075153;27;45493;-76
2023/07/25 16:20:44;;;;;;;;;3.00;3.00;;;;;26.07;40.32;100881.50;5085451;27;45838;-77
2023/07/25 16:23:10;;;;;;;;;3.67;2.33;;;;;26.04;40.85;100879.16;5085472;27;45676;-76
2023/07/25 16:25:35;;;;;;;;;10.00;7.67;;;;;26.06;41.09;100885.25;5085273;27;46029;-76
2023/07/25 16:28:00;;;;;;;;;5.67;4.00;;;;;26.04;40.64;100895.47;5085097;27;51389;-75
2023/07/25 16:30:25;;;;;;;;;6.67;6.67;;;;;26.04;41.25;100887.31;5078835;27;57044;-74
